sensor_id;sensor_type;location;lat;lon;timestamp;pressure;altitude;pressure_sealevel;temperature;humidity
83563;BME280;73535;52.500;13.482;2023-10-31T00:01:48;99143.78;;;12.35;80.83
83563;BME280;73535;52.500;13.482;2023-10-31T00:04:14;99140.63;;;12.31;81.09
83563;BME280;73535;52.500;13.482;2023-10-31T00:06:39;99148.69;;;12.30;81.03
83563;BME280;73535;52.500;13.482;2023-10-31T00:09:04;99163.00;;;12.27;81.36
83563;BME280;73535;52.500;13.482;2023-10-31T00:11:30;99155.09;;;12.27;81.29
83563;BME280;73535;52.500;13.482;2023-10-31T00:13:55;99154.94;;;12.29;81.37
83563;BME280;73535;52.500;13.482;2023-10-31T00:16:20;99163.16;;;12.26;81.41
83563;BME280;73535;52.500;13.482;2023-10-31T00:18:45;99158.03;;;12.24;81.67
83563;BME280;73535;52.500;13.482;2023-10-31T00:21:11;99165.94;;;12.24;81.89
83563;BME280;73535;52.500;13.482;2023-10-31T00:23:45;99156.69;;;12.20;81.99
83563;BME280;73535;52.500;13.482;2023-10-31T00:26:11;99170.81;;;12.19;82.46
83563;BME280;73535;52.500;13.482;2023-10-31T00:28:36;99167.22;;;12.20;82.43
83563;BME280;73535;52.500;13.482;2023-10-31T00:31:01;99155.84;;;12.20;82.68
83563;BME280;73535;52.500;13.482;2023-10-31T00:33:28;99156.38;;;12.23;82.40
83563;BME280;73535;52.500;13.482;2023-10-31T00:35:54;99136.97;;;12.24;83.05
83563;BME280;73535;52.500;13.482;2023-10-31T00:38:19;99142.69;;;12.20;82.89
83563;BME280;73535;52.500;13.482;2023-10-31T00:40:44;99140.34;;;12.17;83.33
83563;BME280;73535;52.500;13.482;2023-10-31T00:43:09;99134.44;;;12.15;83.51
83563;BME280;73535;52.500;13.482;2023-10-31T00:45:35;99131.50;;;12.18;83.25
83563;BME280;73535;52.500;13.482;2023-10-31T00:48:00;99134.88;;;12.10;83.51
83563;BME280;73535;52.500;13.482;2023-10-31T00:50:25;99136.84;;;12.08;83.77
83563;BME280;73535;52.500;13.482;2023-10-31T00:52:50;99140.47;;;12.07;84.14
83563;BME280;73535;52.500;13.482;2023-10-31T00:55:15;99137.66;;;12.09;83.55
83563;BME280;73535;52.500;13.482;2023-10-31T00:57:41;99145.88;;;12.06;83.81
83563;BME280;73535;52.500;13.482;2023-10-31T01:00:06;99148.50;;;12.06;83.94
83563;BME280;73535;52.500;13.482;2023-10-31T01:02:33;99141.56;;;12.05;84.18
83563;BME280;73535;52.500;13.482;2023-10-31T01:04:59;99144.06;;;12.06;84.59
83563;BME280;73535;52.500;13.482;2023-10-31T01:07:24;99136.69;;;12.10;84.28
83563;BME280;73535;52.500;13.482;2023-10-31T01:09:49;99123.31;;;12.03;84.91
83563;BME280;73535;52.500;13.482;2023-10-31T01:12:14;99117.22;;;12.03;84.47
83563;BME280;73535;52.500;13.482;2023-10-31T01:14:40;99109.00;;;12.06;84.47
83563;BME280;73535;52.500;13.482;2023-10-31T01:17:05;99105.25;;;12.08;84.29
83563;BME280;73535;52.500;13.482;2023-10-31T01:19:30;99103.75;;;12.06;84.36
83563;BME280;73535;52.500;13.482;2023-10-31T01:21:55;99093.00;;;11.99;85.25
83563;BME280;73535;52.500;13.482;2023-10-31T01:24:20;99094.34;;;12.03;85.21
83563;BME280;73535;52.500;13.482;2023-10-31T01:26:46;99084.78;;;12.02;84.98
83563;BME280;73535;52.500;13.482;2023-10-31T01:29:11;99080.00;;;11.98;85.25
83563;BME280;73535;52.500;13.482;2023-10-31T01:31:36;99063.19;;;11.99;85.47
83563;BME280;73535;52.500;13.482;2023-10-31T01:34:02;99049.06;;;12.00;85.49
83563;BME280;73535;52.500;13.482;2023-10-31T01:36:27;99050.44;;;12.04;85.01
83563;BME280;73535;52.500;13.482;2023-10-31T01:38:53;99078.88;;;12.00;85.08
83563;BME280;73535;52.500;13.482;2023-10-31T01:41:18;99084.97;;;12.01;85.71
83563;BME280;73535;52.500;13.482;2023-10-31T01:43:44;99070.59;;;11.95;86.15
83563;BME280;73535;52.500;13.482;2023-10-31T01:46:09;99070.44;;;11.97;86.13
83563;BME280;73535;52.500;13.482;2023-10-31T01:48:34;99063.53;;;11.96;86.29
83563;BME280;73535;52.500;13.482;2023-10-31T01:51:02;99063.53;;;11.96;86.44
83563;BME280;73535;52.500;13.482;2023-10-31T01:53:31;99054.13;;;11.93;86.59
83563;BME280;73535;52.500;13.482;2023-10-31T01:55:57;99065.78;;;11.90;86.86
83563;BME280;73535;52.500;13.482;2023-10-31T01:58:25;99063.47;;;11.87;86.93
83563;BME280;73535;52.500;13.482;2023-10-31T02:00:53;99053.09;;;11.86;87.00
83563;BME280;73535;52.500;13.482;2023-10-31T02:03:19;99055.25;;;11.90;87.21
83563;BME280;73535;52.500;13.482;2023-10-31T02:05:45;99051.00;;;11.89;87.11
83563;BME280;73535;52.500;13.482;2023-10-31T02:08:10;99045.41;;;11.93;86.93
83563;BME280;73535;52.500;13.482;2023-10-31T02:10:35;99049.16;;;11.90;86.28
83563;BME280;73535;52.500;13.482;2023-10-31T02:13:11;99040.28;;;11.91;86.63
83563;BME280;73535;52.500;13.482;2023-10-31T02:15:36;99039.09;;;11.85;87.18
83563;BME280;73535;52.500;13.482;2023-10-31T02:18:02;99029.53;;;11.84;86.78
83563;BME280;73535;52.500;13.482;2023-10-31T02:20:27;99006.53;;;11.86;87.54
83563;BME280;73535;52.500;13.482;2023-10-31T02:22:52;99007.69;;;11.84;87.39
83563;BME280;73535;52.500;13.482;2023-10-31T02:25:17;99017.84;;;11.79;87.62
83563;BME280;73535;52.500;13.482;2023-10-31T02:27:43;99012.75;;;11.77;87.53
83563;BME280;73535;52.500;13.482;2023-10-31T02:30:08;99007.47;;;11.77;87.73
83563;BME280;73535;52.500;13.482;2023-10-31T02:32:33;99006.63;;;11.77;87.69
83563;BME280;73535;52.500;13.482;2023-10-31T02:34:59;98985.06;;;11.73;87.78
83563;BME280;73535;52.500;13.482;2023-10-31T02:37:24;98982.00;;;11.78;87.69
83563;BME280;73535;52.500;13.482;2023-10-31T02:39:49;98988.69;;;11.72;87.78
83563;BME280;73535;52.500;13.482;2023-10-31T02:42:14;98997.84;;;11.68;88.26
83563;BME280;73535;52.500;13.482;2023-10-31T02:44:40;99002.81;;;11.71;88.44
83563;BME280;73535;52.500;13.482;2023-10-31T02:47:05;98996.91;;;11.69;88.16
83563;BME280;73535;52.500;13.482;2023-10-31T02:49:30;98991.63;;;11.69;87.93
83563;BME280;73535;52.500;13.482;2023-10-31T02:51:56;98992.44;;;11.70;88.31
83563;BME280;73535;52.500;13.482;2023-10-31T02:54:21;98996.59;;;11.72;88.36
83563;BME280;73535;52.500;13.482;2023-10-31T02:56:46;98988.84;;;11.71;88.39
83563;BME280;73535;52.500;13.482;2023-10-31T02:59:11;98978.47;;;11.69;88.57
83563;BME280;73535;52.500;13.482;2023-10-31T03:01:36;98987.31;;;11.68;88.31
83563;BME280;73535;52.500;13.482;2023-10-31T03:04:02;98978.47;;;11.69;88.59
83563;BME280;73535;52.500;13.482;2023-10-31T03:06:27;98976.50;;;11.71;88.56
83563;BME280;73535;52.500;13.482;2023-10-31T03:08:52;98964.00;;;11.73;88.52
83563;BME280;73535;52.500;13.482;2023-10-31T03:11:22;98986.38;;;11.69;88.50
83563;BME280;73535;52.500;13.482;2023-10-31T03:13:48;98976.19;;;11.74;88.73
83563;BME280;73535;52.500;13.482;2023-10-31T03:16:14;98963.50;;;11.70;88.72
83563;BME280;73535;52.500;13.482;2023-10-31T03:18:39;98953.78;;;11.70;88.98
83563;BME280;73535;52.500;13.482;2023-10-31T03:21:04;98966.94;;;11.70;88.73
83563;BME280;73535;52.500;13.482;2023-10-31T03:23:29;98966.56;;;11.65;88.56
83563;BME280;73535;52.500;13.482;2023-10-31T03:25:55;98965.91;;;11.63;88.76
83563;BME280;73535;52.500;13.482;2023-10-31T03:28:20;98972.13;;;11.62;88.33
83563;BME280;73535;52.500;13.482;2023-10-31T03:30:48;98974.75;;;11.62;88.80
83563;BME280;73535;52.500;13.482;2023-10-31T03:33:14;98973.94;;;11.62;88.93
83563;BME280;73535;52.500;13.482;2023-10-31T03:35:39;98969.69;;;11.61;89.06
83563;BME280;73535;52.500;13.482;2023-10-31T03:38:04;98981.69;;;11.63;89.20
83563;BME280;73535;52.500;13.482;2023-10-31T03:40:30;98979.06;;;11.63;89.01
83563;BME280;73535;52.500;13.482;2023-10-31T03:42:55;98982.50;;;11.64;89.25
83563;BME280;73535;52.500;13.482;2023-10-31T03:45:20;98980.38;;;11.67;89.36
83563;BME280;73535;52.500;13.482;2023-10-31T03:47:45;98983.75;;;11.69;89.37
83563;BME280;73535;52.500;13.482;2023-10-31T03:50:11;98976.66;;;11.70;88.93
83563;BME280;73535;52.500;13.482;2023-10-31T03:52:36;98982.75;;;11.70;88.99
83563;BME280;73535;52.500;13.482;2023-10-31T03:55:01;98984.22;;;11.73;89.08
83563;BME280;73535;52.500;13.482;2023-10-31T03:57:26;98979.81;;;11.73;88.92
83563;BME280;73535;52.500;13.482;2023-10-31T03:59:52;98989.50;;;11.73;88.58
83563;BME280;73535;52.500;13.482;2023-10-31T04:02:17;98986.06;;;11.72;89.06
83563;BME280;73535;52.500;13.482;2023-10-31T04:04:42;98987.56;;;11.75;89.04
83563;BME280;73535;52.500;13.482;2023-10-31T04:07:07;98982.28;;;11.75;88.74
83563;BME280;73535;52.500;13.482;2023-10-31T04:09:33;98982.28;;;11.75;88.85
83563;BME280;73535;52.500;13.482;2023-10-31T04:11:58;98978.66;;;11.76;88.72
83563;BME280;73535;52.500;13.482;2023-10-31T04:14:23;98977.69;;;11.77;88.85
83563;BME280;73535;52.500;13.482;2023-10-31T04:16:48;98985.72;;;11.75;88.99
83563;BME280;73535;52.500;13.482;2023-10-31T04:19:13;98988.22;;;11.77;88.75
83563;BME280;73535;52.500;13.482;2023-10-31T04:21:39;98982.97;;;11.77;89.04
83563;BME280;73535;52.500;13.482;2023-10-31T04:24:04;98978.53;;;11.77;88.90
83563;BME280;73535;52.500;13.482;2023-10-31T04:26:30;98976.72;;;11.78;88.55
83563;BME280;73535;52.500;13.482;2023-10-31T04:28:55;98977.53;;;11.78;88.83
83563;BME280;73535;52.500;13.482;2023-10-31T04:31:20;98976.72;;;11.78;88.88
83563;BME280;73535;52.500;13.482;2023-10-31T04:33:45;98967.00;;;11.78;88.63
83563;BME280;73535;52.500;13.482;2023-10-31T04:36:11;98962.13;;;11.83;88.75
83563;BME280;73535;52.500;13.482;2023-10-31T04:38:36;98962.25;;;11.82;88.73
83563;BME280;73535;52.500;13.482;2023-10-31T04:41:03;98973.31;;;11.85;88.64
83563;BME280;73535;52.500;13.482;2023-10-31T04:43:28;98962.13;;;11.83;88.36
83563;BME280;73535;52.500;13.482;2023-10-31T04:45:53;98968.88;;;11.86;88.73
83563;BME280;73535;52.500;13.482;2023-10-31T04:48:19;98962.94;;;11.84;88.82
83563;BME280;73535;52.500;13.482;2023-10-31T04:50:44;98969.53;;;11.88;88.82
83563;BME280;73535;52.500;13.482;2023-10-31T04:53:09;98962.47;;;11.88;88.92
83563;BME280;73535;52.500;13.482;2023-10-31T04:55:34;98965.75;;;11.90;89.01
83563;BME280;73535;52.500;13.482;2023-10-31T04:58:00;98962.16;;;11.92;89.01
83563;BME280;73535;52.500;13.482;2023-10-31T05:00:25;98959.34;;;11.93;88.94
83563;BME280;73535;52.500;13.482;2023-10-31T05:02:50;98960.88;;;11.96;89.10
83563;BME280;73535;52.500;13.482;2023-10-31T05:05:15;98962.84;;;12.02;88.98
83563;BME280;73535;52.500;13.482;2023-10-31T05:07:40;98964.81;;;12.00;89.49
83563;BME280;73535;52.500;13.482;2023-10-31T05:10:06;98964.69;;;12.01;88.90
83563;BME280;73535;52.500;13.482;2023-10-31T05:12:31;98965.34;;;12.03;89.13
83563;BME280;73535;52.500;13.482;2023-10-31T05:14:57;98962.53;;;12.05;89.29
83563;BME280;73535;52.500;13.482;2023-10-31T05:17:22;98962.53;;;12.05;89.09
83563;BME280;73535;52.500;13.482;2023-10-31T05:19:47;98969.47;;;12.06;89.09
83563;BME280;73535;52.500;13.482;2023-10-31T05:22:14;98965.84;;;12.07;89.21
83563;BME280;73535;52.500;13.482;2023-10-31T05:24:39;98962.22;;;12.08;89.11
83563;BME280;73535;52.500;13.482;2023-10-31T05:27:04;98966.50;;;12.09;89.29
83563;BME280;73535;52.500;13.482;2023-10-31T05:29:32;98963.06;;;12.08;89.17
83563;BME280;73535;52.500;13.482;2023-10-31T05:31:57;98964.53;;;12.11;89.09
83563;BME280;73535;52.500;13.482;2023-10-31T05:34:23;98961.91;;;12.11;89.36
83563;BME280;73535;52.500;13.482;2023-10-31T05:36:48;98965.06;;;12.14;89.26
83563;BME280;73535;52.500;13.482;2023-10-31T05:39:13;98963.06;;;12.16;89.32
83563;BME280;73535;52.500;13.482;2023-10-31T05:41:38;98960.31;;;12.18;89.65
83563;BME280;73535;52.500;13.482;2023-10-31T05:44:03;98952.41;;;12.18;89.59
83563;BME280;73535;52.500;13.482;2023-10-31T05:46:30;98962.94;;;12.18;89.41
83563;BME280;73535;52.500;13.482;2023-10-31T05:48:55;98965.41;;;12.19;89.23
83563;BME280;73535;52.500;13.482;2023-10-31T05:51:20;98961.97;;;12.19;89.92
83563;BME280;73535;52.500;13.482;2023-10-31T05:53:47;98963.44;;;12.21;89.81
83563;BME280;73535;52.500;13.482;2023-10-31T05:56:14;98960.66;;;12.23;89.68
83563;BME280;73535;52.500;13.482;2023-10-31T05:58:40;98967.56;;;12.24;89.45
83563;BME280;73535;52.500;13.482;2023-10-31T06:01:06;98971.84;;;12.25;89.68
83563;BME280;73535;52.500;13.482;2023-10-31T06:03:32;98977.81;;;12.27;89.70
83563;BME280;73535;52.500;13.482;2023-10-31T06:05:57;98979.59;;;12.26;90.13
83563;BME280;73535;52.500;13.482;2023-10-31T06:08:22;98974.13;;;12.20;90.24
83563;BME280;73535;52.500;13.482;2023-10-31T06:10:49;98979.56;;;12.18;90.35
83563;BME280;73535;52.500;13.482;2023-10-31T06:13:14;98982.34;;;12.17;90.19
83563;BME280;73535;52.500;13.482;2023-10-31T06:15:39;98980.53;;;12.17;90.41
83563;BME280;73535;52.500;13.482;2023-10-31T06:18:05;98976.09;;;12.18;90.35
83563;BME280;73535;52.500;13.482;2023-10-31T06:20:30;98990.94;;;12.19;90.51
83563;BME280;73535;52.500;13.482;2023-10-31T06:22:56;98984.53;;;12.21;90.45
83563;BME280;73535;52.500;13.482;2023-10-31T06:25:21;98992.25;;;12.23;90.58
83563;BME280;73535;52.500;13.482;2023-10-31T06:27:46;98990.66;;;12.30;90.46
83563;BME280;73535;52.500;13.482;2023-10-31T06:30:12;99005.97;;;12.34;90.36
83563;BME280;73535;52.500;13.482;2023-10-31T06:32:38;98998.59;;;12.38;90.42
83563;BME280;73535;52.500;13.482;2023-10-31T06:35:06;99002.88;;;12.39;90.09
83563;BME280;73535;52.500;13.482;2023-10-31T06:37:31;99009.47;;;12.43;90.05
83563;BME280;73535;52.500;13.482;2023-10-31T06:39:56;99018.03;;;12.45;89.83
83563;BME280;73535;52.500;13.482;2023-10-31T06:42:21;99017.72;;;12.48;89.97
83563;BME280;73535;52.500;13.482;2023-10-31T06:44:47;99022.84;;;12.50;89.89
83563;BME280;73535;52.500;13.482;2023-10-31T06:47:12;99019.22;;;12.51;89.92
83563;BME280;73535;52.500;13.482;2023-10-31T06:49:37;99029.28;;;12.55;89.85
83563;BME280;73535;52.500;13.482;2023-10-31T06:52:03;99026.66;;;12.55;89.85
83563;BME280;73535;52.500;13.482;2023-10-31T06:54:29;99024.84;;;12.56;90.14
83563;BME280;73535;52.500;13.482;2023-10-31T06:56:55;99028.97;;;12.58;90.08
83563;BME280;73535;52.500;13.482;2023-10-31T06:59:21;99033.25;;;12.59;89.89
83563;BME280;73535;52.500;13.482;2023-10-31T07:01:46;99036.56;;;12.61;89.98
83563;BME280;73535;52.500;13.482;2023-10-31T07:04:11;99039.00;;;12.63;89.80
83563;BME280;73535;52.500;13.482;2023-10-31T07:06:36;99042.34;;;12.65;89.78
83563;BME280;73535;52.500;13.482;2023-10-31T07:09:02;99042.16;;;12.66;89.65
83563;BME280;73535;52.500;13.482;2023-10-31T07:11:30;99039.06;;;12.71;89.80
83563;BME280;73535;52.500;13.482;2023-10-31T07:13:57;99047.78;;;12.71;89.66
83563;BME280;73535;52.500;13.482;2023-10-31T07:16:22;99052.91;;;12.73;89.70
83563;BME280;73535;52.500;13.482;2023-10-31T07:18:47;99050.09;;;12.74;89.92
83563;BME280;73535;52.500;13.482;2023-10-31T07:21:13;99044.69;;;12.76;89.70
83563;BME280;73535;52.500;13.482;2023-10-31T07:23:38;99056.88;;;12.77;89.80
83563;BME280;73535;52.500;13.482;2023-10-31T07:26:03;99067.44;;;12.77;89.80
83563;BME280;73535;52.500;13.482;2023-10-31T07:28:29;99068.22;;;12.77;90.06
83563;BME280;73535;52.500;13.482;2023-10-31T07:30:54;99069.72;;;12.80;90.01
83563;BME280;73535;52.500;13.482;2023-10-31T07:33:19;99080.44;;;12.78;90.19
83563;BME280;73535;52.500;13.482;2023-10-31T07:35:45;99088.66;;;12.75;90.40
83563;BME280;73535;52.500;13.482;2023-10-31T07:38:10;99088.97;;;12.72;90.32
83563;BME280;73535;52.500;13.482;2023-10-31T07:40:35;99093.06;;;12.67;89.13
83563;BME280;73535;52.500;13.482;2023-10-31T07:43:01;99090.22;;;12.60;87.88
83563;BME280;73535;52.500;13.482;2023-10-31T07:45:26;99094.50;;;12.53;86.78
83563;BME280;73535;52.500;13.482;2023-10-31T07:47:51;99096.97;;;12.55;86.17
83563;BME280;73535;52.500;13.482;2023-10-31T07:50:17;99106.84;;;12.53;85.45
83563;BME280;73535;52.500;13.482;2023-10-31T07:52:42;99107.66;;;12.53;85.05
83563;BME280;73535;52.500;13.482;2023-10-31T07:55:08;99122.47;;;12.54;85.12
83563;BME280;73535;52.500;13.482;2023-10-31T07:57:36;99119.81;;;12.46;83.64
83563;BME280;73535;52.500;13.482;2023-10-31T08:00:01;99115.69;;;12.43;82.69
83563;BME280;73535;52.500;13.482;2023-10-31T08:02:27;99113.72;;;12.45;82.80
83563;BME280;73535;52.500;13.482;2023-10-31T08:04:52;99124.25;;;12.45;81.79
83563;BME280;73535;52.500;13.482;2023-10-31T08:07:17;99120.94;;;12.43;81.65
83563;BME280;73535;52.500;13.482;2023-10-31T08:09:43;99123.41;;;12.45;80.79
83563;BME280;73535;52.500;13.482;2023-10-31T08:12:08;99131.19;;;12.46;80.67
83563;BME280;73535;52.500;13.482;2023-10-31T08:14:33;99131.31;;;12.45;80.20
83563;BME280;73535;52.500;13.482;2023-10-31T08:16:58;99129.69;;;12.44;79.83
83563;BME280;73535;52.500;13.482;2023-10-31T08:19:24;99136.94;;;12.42;78.75
83563;BME280;73535;52.500;13.482;2023-10-31T08:21:49;99138.72;;;12.41;78.31
83563;BME280;73535;52.500;13.482;2023-10-31T08:24:14;99149.81;;;13.13;86.77
83563;BME280;73535;52.500;13.482;2023-10-31T08:26:40;99156.25;;;12.84;77.32
83563;BME280;73535;52.500;13.482;2023-10-31T08:29:05;99160.47;;;13.45;88.85
83563;BME280;73535;52.500;13.482;2023-10-31T08:31:30;99159.53;;;14.59;83.01
83563;BME280;73535;52.500;13.482;2023-10-31T08:33:55;99166.97;;;13.17;74.98
83563;BME280;73535;52.500;13.482;2023-10-31T08:36:21;99158.88;;;12.76;75.59
83563;BME280;73535;52.500;13.482;2023-10-31T08:38:46;99167.03;;;12.65;76.29
83563;BME280;73535;52.500;13.482;2023-10-31T08:41:11;99174.44;;;12.62;76.98
83563;BME280;73535;52.500;13.482;2023-10-31T08:43:37;99179.84;;;12.60;76.75
83563;BME280;73535;52.500;13.482;2023-10-31T08:46:02;99178.88;;;12.61;76.20
83563;BME280;73535;52.500;13.482;2023-10-31T08:48:27;99178.19;;;12.59;74.82
83563;BME280;73535;52.500;13.482;2023-10-31T08:50:52;99177.06;;;12.62;74.79
83563;BME280;73535;52.500;13.482;2023-10-31T08:53:18;99180.66;;;12.61;75.03
83563;BME280;73535;52.500;13.482;2023-10-31T08:55:44;99181.19;;;12.64;75.47
83563;BME280;73535;52.500;13.482;2023-10-31T08:58:11;99188.44;;;12.62;74.40
83563;BME280;73535;52.500;13.482;2023-10-31T09:00:37;99185.63;;;12.64;73.81
83563;BME280;73535;52.500;13.482;2023-10-31T09:03:02;99178.56;;;12.64;73.88
83563;BME280;73535;52.500;13.482;2023-10-31T09:05:27;99194.81;;;12.60;73.20
83563;BME280;73535;52.500;13.482;2023-10-31T09:07:52;99197.44;;;12.60;73.49
83563;BME280;73535;52.500;13.482;2023-10-31T09:10:18;99205.06;;;12.63;73.68
83563;BME280;73535;52.500;13.482;2023-10-31T09:12:43;99206.88;;;12.62;73.12
83563;BME280;73535;52.500;13.482;2023-10-31T09:15:08;99220.88;;;12.63;72.61
83563;BME280;73535;52.500;13.482;2023-10-31T09:17:34;99224.50;;;12.62;71.93
83563;BME280;73535;52.500;13.482;2023-10-31T09:19:59;99223.38;;;12.64;72.09
83563;BME280;73535;52.500;13.482;2023-10-31T09:22:25;99216.44;;;12.63;71.89
83563;BME280;73535;52.500;13.482;2023-10-31T09:24:50;99214.31;;;12.67;71.84
83563;BME280;73535;52.500;13.482;2023-10-31T09:27:16;99211.50;;;12.68;71.19
83563;BME280;73535;52.500;13.482;2023-10-31T09:29:41;99214.47;;;12.65;71.22
83563;BME280;73535;52.500;13.482;2023-10-31T09:32:06;99223.06;;;12.67;70.99
83563;BME280;73535;52.500;13.482;2023-10-31T09:34:31;99231.63;;;12.69;70.77
83563;BME280;73535;52.500;13.482;2023-10-31T09:36:58;99230.66;;;12.70;70.92
83563;BME280;73535;52.500;13.482;2023-10-31T09:39:23;99232.97;;;12.73;71.19
83563;BME280;73535;52.500;13.482;2023-10-31T09:41:48;99241.72;;;12.74;71.19
83563;BME280;73535;52.500;13.482;2023-10-31T09:44:13;99246.81;;;12.75;71.16
83563;BME280;73535;52.500;13.482;2023-10-31T09:46:39;99237.25;;;12.74;70.60
83563;BME280;73535;52.500;13.482;2023-10-31T09:49:06;99243.53;;;12.73;70.32
83563;BME280;73535;52.500;13.482;2023-10-31T09:51:32;99251.44;;;12.73;70.39
83563;BME280;73535;52.500;13.482;2023-10-31T09:53:59;99252.94;;;12.76;70.45
83563;BME280;73535;52.500;13.482;2023-10-31T09:56:24;99258.19;;;12.76;70.44
83563;BME280;73535;52.500;13.482;2023-10-31T09:58:51;99259.03;;;12.76;70.40
83563;BME280;73535;52.500;13.482;2023-10-31T10:01:16;99265.63;;;12.80;70.13
83563;BME280;73535;52.500;13.482;2023-10-31T10:03:41;99267.31;;;12.81;70.31
83563;BME280;73535;52.500;13.482;2023-10-31T10:06:07;99263.38;;;12.85;70.05
83563;BME280;73535;52.500;13.482;2023-10-31T10:08:37;99265.31;;;12.83;69.81
83563;BME280;73535;52.500;13.482;2023-10-31T10:11:03;99275.56;;;12.86;69.85
83563;BME280;73535;52.500;13.482;2023-10-31T10:13:28;99272.78;;;12.88;69.38
83563;BME280;73535;52.500;13.482;2023-10-31T10:15:53;99275.44;;;12.88;68.86
83563;BME280;73535;52.500;13.482;2023-10-31T10:18:26;99271.97;;;12.87;69.01
83563;BME280;73535;52.500;13.482;2023-10-31T10:21:01;99274.28;;;12.90;69.21
83563;BME280;73535;52.500;13.482;2023-10-31T10:23:27;99276.31;;;12.96;69.38
83563;BME280;73535;52.500;13.482;2023-10-31T10:25:54;99284.75;;;13.00;69.19
83563;BME280;73535;52.500;13.482;2023-10-31T10:28:20;99283.72;;;13.01;69.63
83563;BME280;73535;52.500;13.482;2023-10-31T10:30:46;99277.63;;;13.00;69.11
83563;BME280;73535;52.500;13.482;2023-10-31T10:33:12;99278.97;;;13.04;69.47
83563;BME280;73535;52.500;13.482;2023-10-31T10:35:37;99289.53;;;13.04;69.30
83563;BME280;73535;52.500;13.482;2023-10-31T10:38:15;99287.56;;;13.07;69.34
83563;BME280;73535;52.500;13.482;2023-10-31T10:40:44;99287.97;;;13.12;68.49
83563;BME280;73535;52.500;13.482;2023-10-31T10:43:24;99290.31;;;13.15;68.80
83563;BME280;73535;52.500;13.482;2023-10-31T10:45:54;99275.47;;;13.22;68.44
83563;BME280;73535;52.500;13.482;2023-10-31T10:48:21;99281.41;;;13.24;68.39
83563;BME280;73535;52.500;13.482;2023-10-31T10:50:51;99273.50;;;13.24;67.80
83563;BME280;73535;52.500;13.482;2023-10-31T10:53:22;99273.88;;;13.29;67.95
83563;BME280;73535;52.500;13.482;2023-10-31T10:55:51;99269.25;;;13.31;68.07
83563;BME280;73535;52.500;13.482;2023-10-31T10:58:26;99278.34;;;13.36;68.23
83563;BME280;73535;52.500;13.482;2023-10-31T11:00:53;99275.72;;;13.36;67.60
83563;BME280;73535;52.500;13.482;2023-10-31T11:03:21;99267.31;;;13.41;67.56
83563;BME280;73535;52.500;13.482;2023-10-31T11:05:47;99268.66;;;13.45;67.70
83563;BME280;73535;52.500;13.482;2023-10-31T11:08:12;99268.53;;;13.46;67.71
83563;BME280;73535;52.500;13.482;2023-10-31T11:10:38;99261.09;;;13.50;66.90
83563;BME280;73535;52.500;13.482;2023-10-31T11:13:04;99261.91;;;13.50;67.16
83563;BME280;73535;52.500;13.482;2023-10-31T11:15:29;99265.72;;;13.48;67.02
83563;BME280;73535;52.500;13.482;2023-10-31T11:17:55;99260.44;;;13.48;65.93
83563;BME280;73535;52.500;13.482;2023-10-31T11:20:21;99262.25;;;13.47;66.68
83563;BME280;73535;52.500;13.482;2023-10-31T11:22:47;99266.38;;;13.50;66.64
83563;BME280;73535;52.500;13.482;2023-10-31T11:25:19;99283.03;;;13.50;66.46
83563;BME280;73535;52.500;13.482;2023-10-31T11:27:51;99290.94;;;13.50;67.04
83563;BME280;73535;52.500;13.482;2023-10-31T11:32:51;99293.06;;;13.47;66.81
83563;BME280;73535;52.500;13.482;2023-10-31T11:35:17;99287.97;;;13.45;66.68
83563;BME280;73535;52.500;13.482;2023-10-31T11:37:43;99287.00;;;13.46;66.86
83563;BME280;73535;52.500;13.482;2023-10-31T11:40:21;99284.19;;;13.48;66.84
83563;BME280;73535;52.500;13.482;2023-10-31T11:42:51;99291.28;;;13.47;67.03
83563;BME280;73535;52.500;13.482;2023-10-31T11:45:41;99300.03;;;13.48;67.05
83563;BME280;73535;52.500;13.482;2023-10-31T11:48:07;99303.63;;;13.47;67.14
83563;BME280;73535;52.500;13.482;2023-10-31T11:50:34;99316.81;;;13.47;67.34
83563;BME280;73535;52.500;13.482;2023-10-31T11:52:59;99311.56;;;13.47;67.14
83563;BME280;73535;52.500;13.482;2023-10-31T11:55:25;99315.72;;;13.49;66.96
83563;BME280;73535;52.500;13.482;2023-10-31T11:57:50;99312.06;;;13.50;67.37
83563;BME280;73535;52.500;13.482;2023-10-31T12:00:22;99324.13;;;13.53;66.96
83563;BME280;73535;52.500;13.482;2023-10-31T12:02:59;99325.28;;;13.58;67.18
83563;BME280;73535;52.500;13.482;2023-10-31T12:05:24;99323.50;;;13.59;66.61
83563;BME280;73535;52.500;13.482;2023-10-31T12:07:49;99330.75;;;13.57;67.00
83563;BME280;73535;52.500;13.482;2023-10-31T12:10:22;99325.78;;;13.54;66.61
83563;BME280;73535;52.500;13.482;2023-10-31T12:12:52;99323.16;;;13.54;65.91
83563;BME280;73535;52.500;13.482;2023-10-31T12:15:17;99323.16;;;13.54;65.44
83563;BME280;73535;52.500;13.482;2023-10-31T12:17:42;99326.75;;;13.53;65.78
83563;BME280;73535;52.500;13.482;2023-10-31T12:20:08;99342.59;;;13.53;64.79
83563;BME280;73535;52.500;13.482;2023-10-31T12:22:34;99340.13;;;13.51;65.06
83563;BME280;73535;52.500;13.482;2023-10-31T12:25:01;99344.22;;;13.46;65.40
83563;BME280;73535;52.500;13.482;2023-10-31T12:27:41;99356.06;;;13.42;65.85
83563;BME280;73535;52.500;13.482;2023-10-31T12:30:07;99355.75;;;13.45;65.79
83563;BME280;73535;52.500;13.482;2023-10-31T12:32:33;99356.06;;;13.42;65.99
83563;BME280;73535;52.500;13.482;2023-10-31T12:34:58;99356.91;;;13.42;65.84
83563;BME280;73535;52.500;13.482;2023-10-31T12:37:24;99363.00;;;13.43;65.79
83563;BME280;73535;52.500;13.482;2023-10-31T12:39:49;99364.66;;;13.44;65.70
83563;BME280;73535;52.500;13.482;2023-10-31T12:42:15;99366.47;;;13.43;65.78
83563;BME280;73535;52.500;13.482;2023-10-31T12:44:40;99370.22;;;13.41;65.39
83563;BME280;73535;52.500;13.482;2023-10-31T12:47:07;99370.56;;;13.38;65.05